sensor_id;sensor_type;location;lat;lon;timestamp;pressure;altitude;pressure_sealevel;temperature;humidity
16120;BME280;12670;53.502;10.252;2022-08-05T00:02:31;101051.38;;;21.28;100.00
16120;BME280;12670;53.502;10.252;2022-08-05T00:05:35;101042.66;;;21.14;100.00
16120;BME280;12670;53.502;10.252;2022-08-05T00:08:59;101047.22;;;21.13;100.00
16120;BME280;12670;53.502;10.252;2022-08-05T00:12:02;101057.38;;;21.21;100.00
16120;BME280;12670;53.502;10.252;2022-08-05T00:15:06;101052.72;;;21.34;100.00
16120;BME280;12670;53.502;10.252;2022-08-05T00:18:29;101053.34;;;21.15;100.00
16120;BME280;12670;53.502;10.252;2022-08-05T00:21:32;101057.25;;;21.22;100.00
16120;BME280;12670;53.502;10.252;2022-08-05T00:24:37;101047.84;;;21.17;100.00
16120;BME280;12670;53.502;10.252;2022-08-05T00:27:43;101053.44;;;21.25;100.00
16120;BME280;12670;53.502;10.252;2022-08-05T00:30:45;101046.88;;;20.95;100.00
16120;BME280;12670;53.502;10.252;2022-08-05T00:33:54;101042.44;;;20.94;100.00
16120;BME280;12670;53.502;10.252;2022-08-05T00:37:16;101046.50;;;21.00;100.00
16120;BME280;12670;53.502;10.252;2022-08-05T00:40:24;101042.19;;;20.97;100.00
16120;BME280;12670;53.502;10.252;2022-08-05T00:43:29;101038.78;;;20.73;100.00
16120;BME280;12670;53.502;10.252;2022-08-05T00:46:50;101043.31;;;20.95;100.00
16120;BME280;12670;53.502;10.252;2022-08-05T00:50:02;101051.75;;;20.90;100.00
16120;BME280;12670;53.502;10.252;2022-08-05T00:53:05;101060.34;;;20.73;100.00
16120;BME280;12670;53.502;10.252;2022-08-05T00:56:29;101078.72;;;20.68;100.00
16120;BME280;12670;53.502;10.252;2022-08-05T00:59:33;101089.50;;;20.79;100.00
16120;BME280;12670;53.502;10.252;2022-08-05T01:02:45;101100.13;;;20.47;100.00
16120;BME280;12670;53.502;10.252;2022-08-05T01:05:50;101098.31;;;20.59;100.00
16120;BME280;12670;53.502;10.252;2022-08-05T01:08:55;101094.16;;;20.55;100.00
16120;BME280;12670;53.502;10.252;2022-08-05T01:12:03;101089.69;;;20.42;100.00
16120;BME280;12670;53.502;10.252;2022-08-05T01:15:21;101082.75;;;20.62;100.00
16120;BME280;12670;53.502;10.252;2022-08-05T01:18:40;101088.50;;;20.22;100.00
16120;BME280;12670;53.502;10.252;2022-08-05T01:22:10;101071.88;;;20.40;100.00
16120;BME280;12670;53.502;10.252;2022-08-05T01:25:48;101074.22;;;20.33;100.00
16120;BME280;12670;53.502;10.252;2022-08-05T01:28:59;101081.66;;;20.18;100.00
16120;BME280;12670;53.502;10.252;2022-08-05T01:32:08;101081.41;;;20.21;100.00
16120;BME280;12670;53.502;10.252;2022-08-05T01:35:25;101092.59;;;20.39;100.00
16120;BME280;12670;53.502;10.252;2022-08-05T01:38:48;101102.94;;;20.45;100.00
16120;BME280;12670;53.502;10.252;2022-08-05T01:41:52;101088.38;;;20.48;100.00
16120;BME280;12670;53.502;10.252;2022-08-05T01:44:59;101074.59;;;20.40;100.00
16120;BME280;12670;53.502;10.252;2022-08-05T01:48:05;101043.09;;;20.29;100.00
16120;BME280;12670;53.502;10.252;2022-08-05T01:51:11;101031.66;;;20.14;100.00
16120;BME280;12670;53.502;10.252;2022-08-05T01:54:18;101025.44;;;20.14;100.00
16120;BME280;12670;53.502;10.252;2022-08-05T01:57:30;101014.88;;;20.00;100.00
16120;BME280;12670;53.502;10.252;2022-08-05T02:00:56;100998.84;;;20.09;100.00
16120;BME280;12670;53.502;10.252;2022-08-05T02:04:01;100979.44;;;19.58;100.00
16120;BME280;12670;53.502;10.252;2022-08-05T02:07:04;100966.63;;;19.96;100.00
16120;BME280;12670;53.502;10.252;2022-08-05T02:10:10;100972.66;;;20.11;100.00
16120;BME280;12670;53.502;10.252;2022-08-05T02:13:21;100984.53;;;20.09;100.00
16120;BME280;12670;53.502;10.252;2022-08-05T02:16:44;100970.16;;;19.97;100.00
16120;BME280;12670;53.502;10.252;2022-08-05T02:19:58;100957.09;;;20.15;100.00
16120;BME280;12670;53.502;10.252;2022-08-05T02:23:06;100950.75;;;20.27;100.00
16120;BME280;12670;53.502;10.252;2022-08-05T02:26:15;100944.41;;;20.17;100.00
16120;BME280;12670;53.502;10.252;2022-08-05T02:29:23;100970.31;;;20.07;100.00
16120;BME280;12670;53.502;10.252;2022-08-05T02:32:51;100969.22;;;20.09;100.00
16120;BME280;12670;53.502;10.252;2022-08-05T02:35:57;100972.03;;;20.08;100.00
16120;BME280;12670;53.502;10.252;2022-08-05T02:39:03;100983.75;;;19.95;100.00
16120;BME280;12670;53.502;10.252;2022-08-05T02:42:09;100984.03;;;20.15;100.00
16120;BME280;12670;53.502;10.252;2022-08-05T02:45:28;101039.88;;;20.13;100.00
16120;BME280;12670;53.502;10.252;2022-08-05T02:48:55;101094.38;;;19.92;100.00
16120;BME280;12670;53.502;10.252;2022-08-05T02:51:59;101072.00;;;19.68;100.00
16120;BME280;12670;53.502;10.252;2022-08-05T02:55:06;101042.16;;;19.47;100.00
16120;BME280;12670;53.502;10.252;2022-08-05T02:58:13;101041.69;;;19.53;100.00
16120;BME280;12670;53.502;10.252;2022-08-05T03:01:23;101016.44;;;19.43;100.00
16120;BME280;12670;53.502;10.252;2022-08-05T03:04:30;101013.69;;;19.56;100.00
16120;BME280;12670;53.502;10.252;2022-08-05T03:07:34;100992.09;;;19.44;100.00
16120;BME280;12670;53.502;10.252;2022-08-05T03:10:57;100968.28;;;19.27;100.00
16120;BME280;12670;53.502;10.252;2022-08-05T03:14:20;100946.16;;;19.00;100.00
16120;BME280;12670;53.502;10.252;2022-08-05T03:17:23;100955.00;;;19.13;100.00
16120;BME280;12670;53.502;10.252;2022-08-05T03:20:28;100963.53;;;19.07;100.00
16120;BME280;12670;53.502;10.252;2022-08-05T03:23:32;100961.59;;;19.09;100.00
16120;BME280;12670;53.502;10.252;2022-08-05T03:26:35;100958.91;;;19.09;100.00
16120;BME280;12670;53.502;10.252;2022-08-05T03:29:38;100972.28;;;18.98;100.00
16120;BME280;12670;53.502;10.252;2022-08-05T03:33:02;100963.75;;;19.04;100.00
16120;BME280;12670;53.502;10.252;2022-08-05T03:36:08;100977.06;;;19.05;100.00
16120;BME280;12670;53.502;10.252;2022-08-05T03:39:12;100972.13;;;19.12;100.00
16120;BME280;12670;53.502;10.252;2022-08-05T03:42:28;100961.88;;;19.17;100.00
16120;BME280;12670;53.502;10.252;2022-08-05T03:45:33;100980.81;;;19.15;100.00
16120;BME280;12670;53.502;10.252;2022-08-05T03:48:56;101000.03;;;19.22;100.00
16120;BME280;12670;53.502;10.252;2022-08-05T03:52:05;100992.44;;;19.16;100.00
16120;BME280;12670;53.502;10.252;2022-08-05T03:55:33;101003.81;;;19.20;100.00
16120;BME280;12670;53.502;10.252;2022-08-05T03:59:00;101006.00;;;19.14;100.00
16120;BME280;12670;53.502;10.252;2022-08-05T04:02:06;101007.94;;;19.12;100.00
16120;BME280;12670;53.502;10.252;2022-08-05T04:05:18;100999.47;;;19.06;100.00
16120;BME280;12670;53.502;10.252;2022-08-05T04:08:25;100995.81;;;19.07;100.00
16120;BME280;12670;53.502;10.252;2022-08-05T04:11:37;101000.34;;;18.94;100.00
16120;BME280;12670;53.502;10.252;2022-08-05T04:14:53;101012.59;;;18.98;100.00
16120;BME280;12670;53.502;10.252;2022-08-05T04:18:00;100999.94;;;19.00;100.00
16120;BME280;12670;53.502;10.252;2022-08-05T04:21:04;101022.56;;;19.08;100.00
16120;BME280;12670;53.502;10.252;2022-08-05T04:24:08;101017.66;;;19.02;100.00
16120;BME280;12670;53.502;10.252;2022-08-05T04:27:22;101021.03;;;18.80;100.00
16120;BME280;12670;53.502;10.252;2022-08-05T04:30:42;101021.84;;;18.94;100.00
16120;BME280;12670;53.502;10.252;2022-08-05T04:33:45;101031.25;;;18.88;100.00
16120;BME280;12670;53.502;10.252;2022-08-05T04:37:08;101028.41;;;19.02;100.00
16120;BME280;12670;53.502;10.252;2022-08-05T04:40:12;101018.22;;;18.95;100.00
16120;BME280;12670;53.502;10.252;2022-08-05T04:43:20;101040.59;;;18.95;100.00
16120;BME280;12670;53.502;10.252;2022-08-05T04:46:22;101029.63;;;18.85;100.00
16120;BME280;12670;53.502;10.252;2022-08-05T04:49:29;101025.44;;;18.94;100.00
16120;BME280;12670;53.502;10.252;2022-08-05T04:52:51;101021.66;;;18.97;100.00
16120;BME280;12670;53.502;10.252;2022-08-05T04:55:55;101038.09;;;18.92;100.00
16120;BME280;12670;53.502;10.252;2022-08-05T04:59:18;101074.16;;;18.89;100.00
16120;BME280;12670;53.502;10.252;2022-08-05T05:02:38;101077.81;;;18.88;100.00
16120;BME280;12670;53.502;10.252;2022-08-05T05:05:43;101082.75;;;18.95;100.00
16120;BME280;12670;53.502;10.252;2022-08-05T05:09:06;101085.00;;;18.88;100.00
16120;BME280;12670;53.502;10.252;2022-08-05T05:12:15;101106.38;;;19.15;100.00
16120;BME280;12670;53.502;10.252;2022-08-05T05:15:18;101111.75;;;19.15;100.00
16120;BME280;12670;53.502;10.252;2022-08-05T05:18:41;101108.06;;;19.16;100.00
16120;BME280;12670;53.502;10.252;2022-08-05T05:22:04;101110.22;;;19.11;100.00
16120;BME280;12670;53.502;10.252;2022-08-05T05:25:26;101113.59;;;19.02;100.00
16120;BME280;12670;53.502;10.252;2022-08-05T05:28:42;101121.75;;;19.13;100.00
16120;BME280;12670;53.502;10.252;2022-08-05T05:31:45;101109.84;;;18.91;100.00
16120;BME280;12670;53.502;10.252;2022-08-05T05:34:48;101110.88;;;19.14;100.00
16120;BME280;12670;53.502;10.252;2022-08-05T05:37:53;101116.66;;;19.34;100.00
16120;BME280;12670;53.502;10.252;2022-08-05T05:41:01;101109.22;;;19.37;100.00
16120;BME280;12670;53.502;10.252;2022-08-05T05:44:09;101113.63;;;19.38;100.00
16120;BME280;12670;53.502;10.252;2022-08-05T05:47:33;101107.72;;;19.33;100.00
16120;BME280;12670;53.502;10.252;2022-08-05T05:50:56;101115.66;;;19.48;100.00
16120;BME280;12670;53.502;10.252;2022-08-05T05:53:58;101100.09;;;19.27;100.00
16120;BME280;12670;53.502;10.252;2022-08-05T05:57:01;101089.78;;;19.21;100.00
16120;BME280;12670;53.502;10.252;2022-08-05T06:00:17;101089.56;;;19.24;100.00
16120;BME280;12670;53.502;10.252;2022-08-05T06:03:20;101105.25;;;19.30;100.00
16120;BME280;12670;53.502;10.252;2022-08-05T06:06:43;101117.94;;;19.41;100.00
16120;BME280;12670;53.502;10.252;2022-08-05T06:09:49;101114.72;;;19.36;100.00
16120;BME280;12670;53.502;10.252;2022-08-05T06:13:04;101113.00;;;19.35;100.00
16120;BME280;12670;53.502;10.252;2022-08-05T06:16:09;101114.41;;;19.28;100.00
16120;BME280;12670;53.502;10.252;2022-08-05T06:19:32;101113.88;;;19.35;100.00
16120;BME280;12670;53.502;10.252;2022-08-05T06:22:36;101107.06;;;19.42;100.00
16120;BME280;12670;53.502;10.252;2022-08-05T06:25:42;101104.16;;;19.33;100.00
16120;BME280;12670;53.502;10.252;2022-08-05T06:29:05;101096.50;;;19.39;100.00
16120;BME280;12670;53.502;10.252;2022-08-05T06:32:29;101108.22;;;19.51;100.00
16120;BME280;12670;53.502;10.252;2022-08-05T06:35:32;101101.97;;;19.51;100.00
16120;BME280;12670;53.502;10.252;2022-08-05T06:38:54;101090.97;;;19.30;100.00
16120;BME280;12670;53.502;10.252;2022-08-05T06:41:58;101086.97;;;19.35;100.00
16120;BME280;12670;53.502;10.252;2022-08-05T06:45:05;101097.72;;;19.35;100.00
16120;BME280;12670;53.502;10.252;2022-08-05T06:48:10;101090.38;;;19.37;100.00
16120;BME280;12670;53.502;10.252;2022-08-05T06:51:33;101092.06;;;19.51;100.00
16120;BME280;12670;53.502;10.252;2022-08-05T06:54:41;101097.34;;;19.53;100.00
16120;BME280;12670;53.502;10.252;2022-08-05T06:57:49;101101.00;;;19.52;100.00
16120;BME280;12670;53.502;10.252;2022-08-05T07:01:11;101103.19;;;19.47;100.00
16120;BME280;12670;53.502;10.252;2022-08-05T07:04:22;101099.63;;;19.59;100.00
16120;BME280;12670;53.502;10.252;2022-08-05T07:07:26;101115.66;;;19.48;100.00
16120;BME280;12670;53.502;10.252;2022-08-05T07:10:44;101121.66;;;19.64;100.00
16120;BME280;12670;53.502;10.252;2022-08-05T07:13:54;101133.97;;;19.79;100.00
16120;BME280;12670;53.502;10.252;2022-08-05T07:17:20;101129.63;;;19.89;100.00
16120;BME280;12670;53.502;10.252;2022-08-05T07:20:44;101135.50;;;19.83;100.00
16120;BME280;12670;53.502;10.252;2022-08-05T07:23:47;101136.47;;;19.82;100.00
16120;BME280;12670;53.502;10.252;2022-08-05T07:26:52;101136.22;;;19.85;100.00
16120;BME280;12670;53.502;10.252;2022-08-05T07:29:56;101133.97;;;19.79;100.00
16120;BME280;12670;53.502;10.252;2022-08-05T07:33:19;101126.19;;;19.87;100.00
16120;BME280;12670;53.502;10.252;2022-08-05T07:36:39;101124.94;;;19.80;100.00
16120;BME280;12670;53.502;10.252;2022-08-05T07:39:41;101121.72;;;19.75;100.00
16120;BME280;12670;53.502;10.252;2022-08-05T07:43:04;101118.94;;;19.77;100.00
16120;BME280;12670;53.502;10.252;2022-08-05T07:46:21;101115.47;;;19.75;100.00
16120;BME280;12670;53.502;10.252;2022-08-05T07:49:26;101108.84;;;19.67;100.00
16120;BME280;12670;53.502;10.252;2022-08-05T07:52:30;101121.44;;;19.54;100.00
16120;BME280;12670;53.502;10.252;2022-08-05T07:55:33;101122.00;;;19.59;100.00
16120;BME280;12670;53.502;10.252;2022-08-05T07:58:55;101122.41;;;19.66;100.00
16120;BME280;12670;53.502;10.252;2022-08-05T08:01:59;101119.94;;;19.63;100.00
16120;BME280;12670;53.502;10.252;2022-08-05T08:05:04;101116.69;;;19.58;100.00
16120;BME280;12670;53.502;10.252;2022-08-05T08:08:08;101121.78;;;19.62;100.00
16120;BME280;12670;53.502;10.252;2022-08-05T08:11:12;101134.03;;;19.66;100.00
16120;BME280;12670;53.502;10.252;2022-08-05T08:14:16;101151.00;;;19.80;100.00
16120;BME280;12670;53.502;10.252;2022-08-05T08:17:19;101145.66;;;19.67;100.00
16120;BME280;12670;53.502;10.252;2022-08-05T08:20:24;101141.53;;;19.74;100.00
16120;BME280;12670;53.502;10.252;2022-08-05T08:23:48;101149.94;;;19.82;100.00
16120;BME280;12670;53.502;10.252;2022-08-05T08:27:05;101135.50;;;19.83;100.00
16120;BME280;12670;53.502;10.252;2022-08-05T08:30:09;101147.72;;;19.87;100.00
16120;BME280;12670;53.502;10.252;2022-08-05T08:33:32;101142.78;;;19.94;100.00
16120;BME280;12670;53.502;10.252;2022-08-05T08:36:38;101151.56;;;19.72;100.00
16120;BME280;12670;53.502;10.252;2022-08-05T08:39:54;101163.38;;;19.82;100.00
16120;BME280;12670;53.502;10.252;2022-08-05T08:42:57;101159.47;;;19.50;100.00
16120;BME280;12670;53.502;10.252;2022-08-05T08:46:21;101161.59;;;19.70;100.00
16120;BME280;12670;53.502;10.252;2022-08-05T08:49:26;101170.16;;;19.75;100.00
16120;BME280;12670;53.502;10.252;2022-08-05T08:52:52;101165.63;;;19.88;100.00
16120;BME280;12670;53.502;10.252;2022-08-05T08:55:57;101174.66;;;19.87;100.00
16120;BME280;12670;53.502;10.252;2022-08-05T08:59:05;101172.47;;;19.92;100.00
16120;BME280;12670;53.502;10.252;2022-08-05T09:02:20;101164.66;;;19.89;100.00
16120;BME280;12670;53.502;10.252;2022-08-05T09:05:27;101183.31;;;20.04;100.00
16120;BME280;12670;53.502;10.252;2022-08-05T09:08:39;101187.97;;;20.02;100.00
16120;BME280;12670;53.502;10.252;2022-08-05T09:11:46;101197.25;;;19.97;100.00
16120;BME280;12670;53.502;10.252;2022-08-05T09:14:52;101187.13;;;20.01;100.00
16120;BME280;12670;53.502;10.252;2022-08-05T09:18:06;101178.00;;;20.15;100.00
16120;BME280;12670;53.502;10.252;2022-08-05T09:21:09;101177.25;;;20.13;100.00
16120;BME280;12670;53.502;10.252;2022-08-05T09:24:32;101190.09;;;20.09;100.00
16120;BME280;12670;53.502;10.252;2022-08-05T09:27:36;101196.56;;;19.83;100.00
16120;BME280;12670;53.502;10.252;2022-08-05T09:31:02;101190.16;;;19.60;100.00
16120;BME280;12670;53.502;10.252;2022-08-05T09:34:45;101174.91;;;19.84;100.00
16120;BME280;12670;53.502;10.252;2022-08-05T09:37:49;101179.38;;;19.96;100.00
16120;BME280;12670;53.502;10.252;2022-08-05T09:41:11;101192.09;;;19.94;100.00
16120;BME280;12670;53.502;10.252;2022-08-05T09:44:32;101181.28;;;20.07;100.00
16120;BME280;12670;53.502;10.252;2022-08-05T09:47:39;101177.25;;;20.13;100.00
16120;BME280;12670;53.502;10.252;2022-08-05T09:50:57;101179.94;;;20.13;100.00
16120;BME280;12670;53.502;10.252;2022-08-05T09:54:00;101178.16;;;20.24;100.00
16120;BME280;12670;53.502;10.252;2022-08-05T09:57:05;101173.59;;;20.14;100.00
16120;BME280;12670;53.502;10.252;2022-08-05T10:00:26;101181.16;;;20.09;100.00
16120;BME280;12670;53.502;10.252;2022-08-05T10:03:31;101188.78;;;20.15;100.00
16120;BME280;12670;53.502;10.252;2022-08-05T10:06:55;101169.34;;;19.98;100.00
16120;BME280;12670;53.502;10.252;2022-08-05T10:10:00;101176.50;;;20.11;100.00
16120;BME280;12670;53.502;10.252;2022-08-05T10:13:25;101170.31;;;19.97;100.00
16120;BME280;12670;53.502;10.252;2022-08-05T10:16:46;101190.88;;;19.62;100.00
16120;BME280;12670;53.502;10.252;2022-08-05T10:19:53;101188.34;;;19.84;100.00
16120;BME280;12670;53.502;10.252;2022-08-05T10:23:13;101192.44;;;19.90;100.00
16120;BME280;12670;53.502;10.252;2022-08-05T10:26:36;101202.47;;;19.75;100.00
16120;BME280;12670;53.502;10.252;2022-08-05T10:29:52;101201.81;;;19.84;100.00
16120;BME280;12670;53.502;10.252;2022-08-05T10:33:16;101207.72;;;19.89;100.00
16120;BME280;12670;53.502;10.252;2022-08-05T10:36:20;101206.91;;;19.76;100.00
16120;BME280;12670;53.502;10.252;2022-08-05T10:39:30;101207.22;;;19.84;100.00
16120;BME280;12670;53.502;10.252;2022-08-05T10:42:58;101200.63;;;19.88;100.00
16120;BME280;12670;53.502;10.252;2022-08-05T10:46:06;101204.19;;;20.13;100.00
16120;BME280;12670;53.502;10.252;2022-08-05T10:49:13;101211.22;;;20.03;100.00
16120;BME280;12670;53.502;10.252;2022-08-05T10:52:37;101216.91;;;20.11;100.00
16120;BME280;12670;53.502;10.252;2022-08-05T10:56:06;101227.91;;;20.08;100.00
16120;BME280;12670;53.502;10.252;2022-08-05T10:59:27;101232.41;;;19.58;100.00
16120;BME280;12670;53.502;10.252;2022-08-05T11:03:17;101230.13;;;19.90;100.00
16120;BME280;12670;53.502;10.252;2022-08-05T11:06:28;101222.09;;;19.77;100.00
16120;BME280;12670;53.502;10.252;2022-08-05T11:09:42;101229.84;;;19.56;100.00
16120;BME280;12670;53.502;10.252;2022-08-05T11:12:47;101233.47;;;19.81;100.00
16120;BME280;12670;53.502;10.252;2022-08-05T11:16:21;101252.56;;;19.78;100.00
16120;BME280;12670;53.502;10.252;2022-08-05T11:19:44;101258.91;;;19.89;100.00
16120;BME280;12670;53.502;10.252;2022-08-05T11:23:30;101279.91;;;19.84;100.00
16120;BME280;12670;53.502;10.252;2022-08-05T11:31:17;101264.75;;;19.70;100.00
16120;BME280;12670;53.502;10.252;2022-08-05T11:34:41;101277.44;;;19.68;100.00
16120;BME280;12670;53.502;10.252;2022-08-05T11:38:01;101291.47;;;19.61;100.00
16120;BME280;12670;53.502;10.252;2022-08-05T11:41:26;101291.34;;;19.62;100.00
16120;BME280;12670;53.502;10.252;2022-08-05T11:44:49;101309.94;;;19.40;100.00
16120;BME280;12670;53.502;10.252;2022-08-05T11:47:54;101307.25;;;19.40;100.00
16120;BME280;12670;53.502;10.252;2022-08-05T11:51:00;101320.72;;;19.53;100.00
16120;BME280;12670;53.502;10.252;2022-08-05T11:54:04;101319.63;;;19.42;100.00
16120;BME280;12670;53.502;10.252;2022-08-05T11:57:08;101308.09;;;19.28;100.00
16120;BME280;12670;53.502;10.252;2022-08-05T12:00:26;101297.44;;;19.26;100.00
16120;BME280;12670;53.502;10.252;2022-08-05T12:03:40;101290.66;;;19.33;100.00
16120;BME280;12670;53.502;10.252;2022-08-05T12:06:58;101312.94;;;19.23;100.00
16120;BME280;12670;53.502;10.252;2022-08-05T12:10:04;101348.22;;;19.18;100.00
16120;BME280;12670;53.502;10.252;2022-08-05T12:13:16;101346.00;;;19.25;100.00
16120;BME280;12670;53.502;10.252;2022-08-05T12:16:40;101333.72;;;19.33;100.00
16120;BME280;12670;53.502;10.252;2022-08-05T12:19:48;101331.69;;;19.24;100.00
16120;BME280;12670;53.502;10.252;2022-08-05T12:23:11;101335.72;;;19.17;100.00
16120;BME280;12670;53.502;10.252;2022-08-05T12:26:14;101343.06;;;19.15;100.00
16120;BME280;12670;53.502;10.252;2022-08-05T12:29:20;101349.41;;;19.14;100.00
16120;BME280;12670;53.502;10.252;2022-08-05T12:32:24;101338.66;;;19.39;100.00
16120;BME280;12670;53.502;10.252;2022-08-05T12:35:26;101333.22;;;19.54;100.00
16120;BME280;12670;53.502;10.252;2022-08-05T12:38:40;101338.16;;;19.47;100.00
16120;BME280;12670;53.502;10.252;2022-08-05T12:41:43;101335.25;;;19.63;100.00
16120;BME280;12670;53.502;10.252;2022-08-05T12:44:50;101339.44;;;19.92;100.00
16120;BME280;12670;53.502;10.252;2022-08-05T12:47:52;101348.47;;;20.17;100.00
16120;BME280;12670;53.502;10.252;2022-08-05T12:51:15;101353.69;;;19.94;100.00
16120;BME280;12670;53.502;10.252;2022-08-05T12:54:39;101356.44;;;20.18;100.00
16120;BME280;12670;53.502;10.252;2022-08-05T12:57:42;101359.25;;;20.17;100.00
16120;BME280;12670;53.502;10.252;2022-08-05T13:01:06;101348.69;;;20.14;100.00
16120;BME280;12670;53.502;10.252;2022-08-05T13:04:30;101344.38;;;20.24;100.00
16120;BME280;12670;53.502;10.252;2022-08-05T13:07:42;101337.47;;;20.57;100.00
16120;BME280;12670;53.502;10.252;2022-08-05T13:11:02;101339.50;;;20.66;100.00
16120;BME280;12670;53.502;10.252;2022-08-05T13:14:16;101351.72;;;20.83;100.00
16120;BME280;12670;53.502;10.252;2022-08-05T13:17:23;101359.91;;;20.81;100.00
16120;BME280;12670;53.502;10.252;2022-08-05T13:20:41;101375.34;;;20.42;99.21
16120;BME280;12670;53.502;10.252;2022-08-05T13:23:45;101361.34;;;20.50;99.61
16120;BME280;12670;53.502;10.252;2022-08-05T13:26:52;101361.00;;;20.55;98.75
16120;BME280;12670;53.502;10.252;2022-08-05T13:29:55;101353.97;;;20.65;99.21
16120;BME280;12670;53.502;10.252;2022-08-05T13:33:19;101362.91;;;20.89;100.00
16120;BME280;12670;53.502;10.252;2022-08-05T13:36:42;101365.53;;;21.02;100.00
16120;BME280;12670;53.502;10.252;2022-08-05T13:39:45;101361.38;;;21.33;98.67
16120;BME280;12670;53.502;10.252;2022-08-05T13:43:08;101372.25;;;21.67;95.72
16120;BME280;12670;53.502;10.252;2022-08-05T13:46:13;101354.84;;;22.04;93.12
16120;BME280;12670;53.502;10.252;2022-08-05T13:49:32;101361.00;;;21.84;91.53
16120;BME280;12670;53.502;10.252;2022-08-05T13:52:35;101368.84;;;21.76;94.25
16120;BME280;12670;53.502;10.252;2022-08-05T13:55:38;101359.34;;;21.48;94.82
16120;BME280;12670;53.502;10.252;2022-08-05T13:58:48;101366.47;;;21.49;95.46
16120;BME280;12670;53.502;10.252;2022-08-05T14:01:54;101359.34;;;21.48;98.09
16120;BME280;12670;53.502;10.252;2022-08-05T14:05:01;101367.22;;;21.73;98.63
16120;BME280;12670;53.502;10.252;2022-08-05T14:08:19;101363.44;;;21.76;98.11
16120;BME280;12670;53.502;10.252;2022-08-05T14:11:28;101356.41;;;21.62;95.27
16120;BME280;12670;53.502;10.252;2022-08-05T14:14:31;101353.09;;;21.47;94.12
16120;BME280;12670;53.502;10.252;2022-08-05T14:17:35;101352.50;;;21.66;93.13
16120;BME280;12670;53.502;10.252;2022-08-05T14:20:39;101357.25;;;21.40;92.11
16120;BME280;12670;53.502;10.252;2022-08-05T14:23:47;101362.41;;;21.54;94.20
16120;BME280;12670;53.502;10.252;2022-08-05T14:26:50;101356.69;;;21.81;97.99
16120;BME280;12670;53.502;10.252;2022-08-05T14:30:13;101351.91;;;21.96;100.00
16120;BME280;12670;53.502;10.252;2022-08-05T14:33:21;101353.88;;;22.05;93.52
16120;BME280;12670;53.502;10.252;2022-08-05T14:36:26;101353.97;;;21.93;93.81
16120;BME280;12670;53.502;10.252;2022-08-05T14:39:30;101359.81;;;22.11;93.36
16120;BME280;12670;53.502;10.252;2022-08-05T14:42:53;101353.25;;;22.02;96.35
16120;BME280;12670;53.502;10.252;2022-08-05T14:45:56;101357.66;;;21.92;97.79
16120;BME280;12670;53.502;10.252;2022-08-05T14:49:00;101367.59;;;21.80;95.58
16120;BME280;12670;53.502;10.252;2022-08-05T14:52:09;101357.25;;;21.63;98.87
16120;BME280;12670;53.502;10.252;2022-08-05T14:55:22;101359.34;;;21.48;94.28
16120;BME280;12670;53.502;10.252;2022-08-05T14:58:25;101361.66;;;21.41;94.79
16120;BME280;12670;53.502;10.252;2022-08-05T15:01:29;101365.81;;;21.45;96.92
16120;BME280;12670;53.502;10.252;2022-08-05T15:04:50;101371.63;;;21.28;97.36
16120;BME280;12670;53.502;10.252;2022-08-05T15:07:54;101378.81;;;21.29;97.80
16120;BME280;12670;53.502;10.252;2022-08-05T15:11:17;101388.81;;;21.27;97.99
16120;BME280;12670;53.502;10.252;2022-08-05T15:14:20;101385.31;;;21.14;97.82
16120;BME280;12670;53.502;10.252;2022-08-05T15:17:42;101387.03;;;21.15;98.46
16120;BME280;12670;53.502;10.252;2022-08-05T15:20:52;101401.06;;;21.20;97.97
16120;BME280;12670;53.502;10.252;2022-08-05T15:23:56;101404.56;;;21.33;98.96
16120;BME280;12670;53.502;10.252;2022-08-05T15:26:58;101394.16;;;21.40;98.87
16120;BME280;12670;53.502;10.252;2022-08-05T15:30:04;101389.72;;;21.39;100.00
16120;BME280;12670;53.502;10.252;2022-08-05T15:33:07;101381.78;;;21.48;95.00
16120;BME280;12670;53.502;10.252;2022-08-05T15:36:10;101373.16;;;21.32;97.76
16120;BME280;12670;53.502;10.252;2022-08-05T15:39:25;101370.97;;;21.37;100.00
16120;BME280;12670;53.502;10.252;2022-08-05T15:42:48;101370.63;;;21.42;100.00
16120;BME280;12670;53.502;10.252;2022-08-05T15:45:58;101375.66;;;21.22;98.82
16120;BME280;12670;53.502;10.252;2022-08-05T15:49:01;101378.25;;;21.48;100.00
16120;BME280;12670;53.502;10.252;2022-08-05T15:52:11;101381.69;;;21.26;98.89
16120;BME280;12670;53.502;10.252;2022-08-05T15:55:35;101388.25;;;21.11;95.51
16120;BME280;12670;53.502;10.252;2022-08-05T15:58:58;101396.41;;;20.74;97.51
16120;BME280;12670;53.502;10.252;2022-08-05T16:02:00;101389.28;;;20.73;100.00
16120;BME280;12670;53.502;10.252;2022-08-05T16:05:10;101438.75;;;20.35;100.00
16120;BME280;12670;53.502;10.252;2022-08-05T16:08:13;101444.94;;;20.12;98.03
16120;BME280;12670;53.502;10.252;2022-08-05T16:11:17;101443.72;;;20.16;99.69
16120;BME280;12670;53.502;10.252;2022-08-05T16:14:21;101445.66;;;20.14;99.79
16120;BME280;12670;53.502;10.252;2022-08-05T16:17:24;101434.03;;;20.26;100.00
16120;BME280;12670;53.502;10.252;2022-08-05T16:20:29;101448.88;;;20.44;100.00
16120;BME280;12670;53.502;10.252;2022-08-05T16:23:32;101444.59;;;20.29;100.00